TAF KCHA
KCHA 072320Z 0800/0824 VRB02KT P6SM OVC070 FM080600 00000KT P6SM OVC030 FM081700 34004KT P6SM FEW180=
METAR KCHA
WC KCHA
WS KCHA
WV KCHA